createdAt,value
2022-08-30T00:02:21.310Z,0.90
2022-08-30T00:04:50.557Z,0.90
2022-08-30T00:07:17.758Z,0.80
2022-08-30T00:09:45.026Z,0.90
2022-08-30T00:12:12.353Z,0.90
2022-08-30T00:14:39.549Z,1.00
2022-08-30T00:17:06.658Z,0.83
2022-08-30T00:19:33.968Z,0.80
2022-08-30T00:22:00.995Z,1.07
2022-08-30T00:24:28.325Z,1.17
2022-08-30T00:26:55.531Z,1.00
2022-08-30T00:29:22.664Z,1.13
2022-08-30T00:31:49.695Z,1.30
2022-08-30T00:34:16.897Z,1.00
2022-08-30T00:36:45.731Z,1.33
2022-08-30T00:39:12.952Z,1.00
2022-08-30T00:41:40.032Z,1.10
2022-08-30T00:44:07.835Z,1.17
2022-08-30T00:46:34.942Z,1.20
2022-08-30T00:49:07.668Z,1.20
2022-08-30T00:51:35.333Z,1.30
2022-08-30T00:54:04.085Z,1.40
2022-08-30T00:56:33.583Z,1.33
2022-08-30T00:59:03.890Z,1.00
2022-08-30T01:01:34.114Z,1.20
2022-08-30T01:04:02.720Z,1.30
2022-08-30T01:06:32.730Z,1.30
2022-08-30T01:09:02.059Z,1.27
2022-08-30T01:11:31.827Z,1.23
2022-08-30T01:13:59.613Z,1.10
2022-08-30T01:16:27.364Z,1.37
2022-08-30T01:18:58.407Z,1.17
2022-08-30T01:21:57.599Z,1.33
2022-08-30T01:24:24.876Z,1.60
2022-08-30T01:26:51.895Z,1.10
2022-08-30T01:29:24.720Z,1.30
2022-08-30T01:31:52.030Z,1.40
2022-08-30T01:34:19.263Z,1.60
2022-08-30T01:36:47.153Z,1.63
2022-08-30T01:39:18.037Z,1.57
2022-08-30T01:41:45.526Z,1.30
2022-08-30T01:44:14.403Z,1.63
2022-08-30T01:46:47.597Z,1.30
2022-08-30T01:49:26.021Z,1.57
2022-08-30T01:52:01.042Z,2.10
2022-08-30T01:54:38.006Z,2.10
2022-08-30T01:57:10.024Z,2.40
2022-08-30T01:59:39.863Z,1.90
2022-08-30T02:02:08.083Z,2.07
2022-08-30T02:04:36.739Z,1.53
2022-08-30T02:07:05.499Z,1.33
2022-08-30T02:09:32.547Z,1.40
2022-08-30T02:11:59.526Z,1.70
2022-08-30T02:14:27.557Z,1.37
2022-08-30T02:16:54.722Z,1.37
2022-08-30T02:19:21.990Z,1.40
2022-08-30T02:21:49.557Z,1.17
2022-08-30T02:24:16.562Z,1.00
2022-08-30T02:26:43.606Z,1.40
2022-08-30T02:29:10.704Z,1.10
2022-08-30T02:31:38.149Z,1.40
2022-08-30T02:34:05.391Z,1.20
2022-08-30T02:36:32.588Z,1.33
2022-08-30T02:38:59.839Z,1.20
2022-08-30T02:41:26.960Z,1.27
2022-08-30T02:43:58.419Z,1.10
2022-08-30T02:46:26.977Z,1.20
2022-08-30T02:49:00.327Z,1.07
2022-08-30T02:51:33.582Z,1.13
2022-08-30T02:54:00.648Z,0.97
2022-08-30T02:56:28.706Z,1.00
2022-08-30T02:58:55.778Z,1.13
2022-08-30T03:01:26.316Z,1.20
2022-08-30T03:03:55.821Z,1.23
2022-08-30T03:06:22.872Z,1.00
2022-08-30T03:08:49.933Z,1.07
2022-08-30T03:11:16.917Z,1.30
2022-08-30T03:13:43.987Z,0.90
2022-08-30T03:16:11.482Z,1.30
2022-08-30T03:18:38.623Z,1.30
2022-08-30T03:21:12.342Z,0.90
2022-08-30T03:23:40.845Z,1.43
2022-08-30T03:26:10.552Z,1.80
2022-08-30T03:28:37.988Z,1.43
2022-08-30T03:31:05.688Z,1.50
2022-08-30T03:33:32.691Z,1.63
2022-08-30T03:35:59.735Z,1.30
2022-08-30T03:38:26.742Z,1.33
2022-08-30T03:40:53.739Z,1.67
2022-08-30T03:43:20.776Z,1.60
2022-08-30T03:45:48.192Z,1.63
2022-08-30T03:48:15.299Z,1.53
2022-08-30T03:50:42.273Z,1.80
2022-08-30T03:53:10.574Z,1.03
2022-08-30T03:55:37.674Z,1.40
2022-08-30T03:58:04.838Z,1.10
2022-08-30T04:00:31.981Z,1.40
2022-08-30T04:02:59.051Z,1.93
2022-08-30T04:05:27.240Z,1.67
2022-08-30T04:07:54.359Z,1.30
2022-08-30T04:10:22.453Z,1.60
2022-08-30T04:12:50.703Z,1.60
2022-08-30T04:15:19.552Z,1.23
2022-08-30T04:17:47.730Z,1.60
2022-08-30T04:20:15.945Z,1.60
2022-08-30T04:22:43.185Z,1.50
2022-08-30T04:25:15.310Z,1.67
2022-08-30T04:27:45.366Z,1.60
2022-08-30T04:30:14.668Z,1.40
2022-08-30T04:32:41.810Z,1.20
2022-08-30T04:35:09.786Z,1.30
2022-08-30T04:37:38.906Z,1.30
2022-08-30T04:40:07.216Z,1.60
2022-08-30T04:42:36.117Z,1.27
2022-08-30T04:45:09.881Z,1.50
2022-08-30T04:47:39.207Z,1.50
2022-08-30T04:50:10.231Z,1.13
2022-08-30T04:52:37.626Z,1.40
2022-08-30T04:55:06.015Z,1.30
2022-08-30T04:57:33.285Z,1.27
2022-08-30T05:00:00.679Z,1.70
2022-08-30T05:02:27.880Z,1.50
2022-08-30T05:05:14.311Z,1.80
2022-08-30T05:07:41.799Z,1.40
2022-08-30T05:10:11.553Z,1.37
2022-08-30T05:12:40.147Z,1.60
2022-08-30T05:15:08.237Z,1.60
2022-08-30T05:17:39.061Z,1.30
2022-08-30T05:20:09.853Z,1.47
2022-08-30T05:22:38.713Z,1.50
2022-08-30T05:25:07.870Z,1.47
2022-08-30T05:27:37.541Z,1.50
2022-08-30T05:30:06.309Z,1.23
2022-08-30T05:32:33.423Z,1.30
2022-08-30T05:35:00.402Z,1.40
2022-08-30T05:37:27.888Z,1.70
2022-08-30T05:39:56.628Z,1.70
2022-08-30T05:42:24.294Z,1.33
2022-08-30T05:44:54.169Z,1.40
2022-08-30T05:47:22.240Z,1.20
2022-08-30T05:49:49.754Z,1.40
2022-08-30T05:52:18.238Z,1.63
2022-08-30T05:54:51.505Z,1.80
2022-08-30T05:57:20.129Z,1.60
2022-08-30T05:59:47.599Z,1.70
2022-08-30T06:02:14.769Z,1.60
2022-08-30T06:04:43.296Z,2.40
2022-08-30T06:07:13.012Z,1.57
2022-08-30T06:09:42.470Z,2.10
2022-08-30T06:12:09.955Z,2.10
2022-08-30T06:14:38.914Z,1.73
2022-08-30T06:17:07.122Z,1.53
2022-08-30T06:19:34.195Z,1.43
2022-08-30T06:22:01.164Z,1.63
2022-08-30T06:24:53.697Z,1.50
2022-08-30T06:27:15.540Z,1.43
2022-08-30T06:29:42.567Z,1.37
2022-08-30T06:32:09.599Z,1.63
2022-08-30T06:34:36.662Z,1.43
2022-08-30T06:37:03.689Z,1.27
2022-08-30T06:39:30.665Z,1.20
2022-08-30T06:41:57.677Z,1.10
2022-08-30T06:44:24.989Z,1.20
2022-08-30T06:46:52.066Z,3.10
2022-08-30T06:49:19.164Z,3.93
2022-08-30T06:51:46.202Z,1.73
2022-08-30T06:54:13.339Z,1.63
2022-08-30T06:56:55.169Z,1.40
2022-08-30T06:59:25.901Z,1.40
2022-08-30T07:01:54.869Z,1.30
2022-08-30T07:04:21.891Z,1.20
2022-08-30T07:06:48.872Z,1.17
2022-08-30T07:09:15.949Z,1.03
2022-08-30T07:11:43.473Z,1.40
2022-08-30T07:14:11.206Z,1.40
2022-08-30T07:16:38.391Z,1.10
2022-08-30T07:19:06.777Z,1.20
2022-08-30T07:21:43.846Z,1.00
2022-08-30T07:24:13.535Z,1.00
2022-08-30T07:26:49.756Z,1.13
2022-08-30T07:29:19.076Z,1.35
2022-08-30T07:31:46.287Z,1.07
2022-08-30T07:34:13.479Z,0.90
2022-08-30T07:36:40.517Z,1.27
2022-08-30T07:39:08.329Z,1.60
2022-08-30T07:41:38.930Z,1.10
2022-08-30T07:44:10.037Z,1.30
2022-08-30T07:46:41.163Z,1.00
2022-08-30T07:49:11.210Z,1.33
2022-08-30T07:51:40.621Z,0.88
2022-08-30T07:54:08.341Z,1.20
2022-08-30T07:56:36.009Z,1.00
2022-08-30T07:59:03.618Z,1.10
2022-08-30T08:01:31.191Z,0.98
2022-08-30T08:03:59.249Z,0.90
2022-08-30T08:06:27.718Z,1.00
2022-08-30T08:09:02.399Z,1.00
2022-08-30T08:11:33.626Z,0.93
2022-08-30T08:14:03.783Z,1.10
2022-08-30T08:16:34.655Z,1.00
2022-08-30T08:19:02.291Z,1.00
2022-08-30T08:21:29.605Z,1.52
2022-08-30T08:23:56.766Z,1.33
2022-08-30T08:26:23.798Z,1.30
2022-08-30T08:28:50.899Z,0.95
2022-08-30T08:31:23.642Z,1.00
2022-08-30T08:33:56.273Z,1.10
2022-08-30T08:36:23.514Z,1.10
2022-08-30T08:38:50.561Z,0.90
2022-08-30T08:41:54.307Z,1.02
2022-08-30T08:44:42.685Z,0.90
2022-08-30T08:47:20.188Z,1.10
2022-08-30T08:49:54.745Z,1.23
2022-08-30T08:53:10.824Z,1.30
2022-08-30T08:55:52.989Z,1.30
2022-08-30T08:58:27.489Z,1.40
2022-08-30T09:00:59.557Z,0.90
2022-08-30T09:03:29.275Z,0.98
2022-08-30T09:05:57.514Z,1.25
2022-08-30T09:08:25.312Z,0.85
2022-08-30T09:11:02.868Z,1.05
2022-08-30T09:13:29.928Z,1.25
2022-08-30T09:16:00.133Z,1.15
2022-08-30T09:18:52.583Z,1.00
2022-08-30T09:21:27.628Z,1.30
2022-08-30T09:24:04.888Z,1.08
2022-08-30T09:26:37.918Z,1.45
2022-08-30T09:29:16.897Z,1.30
2022-08-30T09:32:10.058Z,1.10
2022-08-30T09:34:43.975Z,1.10
2022-08-30T09:37:46.170Z,2.38
2022-08-30T09:40:26.118Z,0.90
2022-08-30T09:43:04.155Z,1.00
2022-08-30T09:45:36.757Z,1.20
2022-08-30T09:48:27.278Z,1.25
2022-08-30T09:51:11.485Z,0.90
2022-08-30T09:54:22.636Z,0.80
2022-08-30T09:57:49.112Z,1.38
2022-08-30T10:00:24.187Z,0.98
2022-08-30T10:03:11.224Z,0.90
2022-08-30T10:06:08.525Z,1.27
2022-08-30T10:08:41.507Z,1.00
2022-08-30T10:11:25.532Z,1.08
2022-08-30T10:14:53.583Z,1.00
2022-08-30T10:17:41.797Z,0.88
2022-08-30T10:20:36.691Z,1.30
2022-08-30T10:23:16.120Z,1.10
2022-08-30T10:25:59.325Z,1.23
2022-08-30T10:28:42.208Z,1.10
2022-08-30T10:31:41.861Z,1.02
2022-08-30T10:34:31.291Z,0.82
2022-08-30T10:37:13.460Z,1.15
2022-08-30T10:39:50.835Z,0.98
2022-08-30T10:42:40.151Z,0.93
2022-08-30T10:45:16.818Z,1.00
2022-08-30T10:48:05.326Z,1.05
2022-08-30T10:50:45.719Z,1.00
2022-08-30T10:53:32.997Z,1.00
2022-08-30T10:56:07.979Z,1.00
2022-08-30T10:58:39.936Z,0.80
2022-08-30T11:01:46.326Z,0.70
2022-08-30T11:04:45.648Z,0.70
2022-08-30T11:07:47.937Z,0.82
2022-08-30T11:10:49.825Z,0.82
2022-08-30T11:13:40.267Z,0.90
2022-08-30T11:16:15.489Z,1.20
2022-08-30T11:18:54.079Z,0.95
2022-08-30T11:21:38.857Z,0.98
2022-08-30T11:24:12.986Z,1.10
2022-08-30T11:26:46.179Z,0.90
2022-08-30T11:29:47.562Z,0.80
2022-08-30T11:32:17.179Z,1.00
2022-08-30T11:34:47.904Z,0.80
2022-08-30T11:37:38.564Z,1.08
2022-08-30T11:40:20.783Z,1.08
2022-08-30T11:42:53.774Z,1.17
2022-08-30T11:45:25.140Z,1.00
2022-08-30T11:47:59.552Z,0.85
2022-08-30T11:50:35.852Z,0.90
2022-08-30T11:53:42.954Z,1.00
2022-08-30T11:57:17.519Z,0.93
2022-08-30T12:00:10.626Z,0.88
2022-08-30T12:03:00.119Z,0.95
2022-08-30T12:05:39.945Z,1.10
2022-08-30T12:08:34.045Z,0.77
2022-08-30T12:11:26.633Z,0.90
2022-08-30T12:13:56.015Z,0.82
2022-08-30T12:17:06.136Z,1.15
2022-08-30T12:19:34.442Z,1.30
2022-08-30T12:22:08.075Z,1.00
2022-08-30T12:24:43.700Z,0.90
2022-08-30T12:27:34.095Z,0.90
2022-08-30T12:30:22.007Z,0.65
2022-08-30T12:32:53.141Z,0.70
2022-08-30T12:35:30.212Z,0.90
2022-08-30T12:38:06.192Z,0.77
2022-08-30T12:40:37.452Z,0.73
2022-08-30T12:43:19.535Z,0.60
2022-08-30T12:45:51.631Z,0.57
2022-08-30T12:48:20.844Z,1.27
2022-08-30T12:50:58.119Z,0.70
2022-08-30T12:53:38.087Z,0.70
2022-08-30T12:56:11.483Z,0.70
2022-08-30T12:58:51.156Z,0.88
2022-08-30T13:01:28.324Z,0.70
2022-08-30T13:04:23.614Z,0.80
2022-08-30T13:07:01.872Z,0.77
2022-08-30T13:09:39.207Z,0.40
2022-08-30T13:12:22.319Z,0.80
2022-08-30T13:14:50.203Z,0.77
2022-08-30T13:17:20.434Z,0.70
2022-08-30T13:20:08.205Z,0.60
2022-08-30T13:22:38.752Z,0.60
2022-08-30T13:25:09.451Z,0.60
2022-08-30T13:27:39.080Z,0.60
2022-08-30T13:30:14.857Z,0.68
2022-08-30T13:32:43.182Z,0.50
2022-08-30T13:35:11.825Z,0.50
2022-08-30T13:37:49.610Z,0.57
2022-08-30T13:40:21.239Z,0.77
2022-08-30T13:42:50.298Z,0.50
2022-08-30T13:48:07.278Z,0.50
2022-08-30T13:50:34.345Z,0.57
2022-08-30T13:53:01.597Z,0.47
2022-08-30T13:55:28.938Z,0.40
2022-08-30T13:57:57.412Z,0.45
2022-08-30T14:00:26.659Z,0.60
2022-08-30T14:02:57.540Z,0.50
2022-08-30T14:05:52.685Z,0.50
2022-08-30T14:08:45.189Z,0.60
2022-08-30T14:11:18.462Z,0.50
2022-08-30T14:16:38.144Z,0.70
2022-08-30T14:19:07.404Z,0.80
2022-08-30T14:21:35.899Z,0.57
2022-08-30T14:24:06.357Z,0.50
2022-08-30T14:26:43.757Z,0.73
2022-08-30T14:29:22.138Z,0.75
2022-08-30T14:31:50.400Z,0.90
2022-08-30T14:34:19.397Z,0.70
2022-08-30T14:36:47.596Z,0.70
2022-08-30T14:39:22.111Z,0.68
2022-08-30T14:41:55.292Z,1.08
2022-08-30T14:44:25.997Z,0.80
2022-08-30T14:46:54.647Z,0.55
2022-08-30T14:49:23.504Z,0.40
2022-08-30T14:51:54.835Z,1.50
2022-08-30T14:54:26.679Z,0.50
2022-08-30T14:56:55.166Z,1.17
2022-08-30T14:59:24.399Z,0.70
2022-08-30T15:01:51.681Z,0.68
2022-08-30T15:04:19.192Z,0.60
2022-08-30T15:06:51.063Z,0.50
2022-08-30T15:09:23.463Z,0.90
2022-08-30T15:11:58.748Z,1.65
2022-08-30T15:14:28.189Z,1.25
2022-08-30T15:16:56.436Z,0.50
2022-08-30T15:19:26.503Z,0.60
2022-08-30T15:21:53.583Z,0.60
2022-08-30T15:24:27.639Z,0.63
2022-08-30T15:27:00.139Z,1.30
2022-08-30T15:29:30.653Z,0.60
2022-08-30T15:32:01.375Z,0.90
2022-08-30T15:34:30.043Z,0.63
2022-08-30T15:36:57.996Z,0.60
2022-08-30T15:39:25.386Z,0.55
2022-08-30T15:41:55.709Z,0.68
2022-08-30T15:44:24.372Z,0.80
2022-08-30T15:46:51.451Z,0.90
2022-08-30T15:49:22.989Z,0.80
2022-08-30T15:51:53.857Z,0.77
2022-08-30T15:54:23.906Z,0.80
2022-08-30T15:56:58.921Z,0.60
2022-08-30T15:59:36.352Z,0.80
2022-08-30T16:02:08.103Z,0.60
2022-08-30T16:04:38.878Z,0.70
2022-08-30T16:07:12.431Z,0.90
2022-08-30T16:09:43.808Z,0.70
2022-08-30T16:12:11.591Z,0.73
2022-08-30T16:14:39.282Z,1.00
2022-08-30T16:17:06.894Z,0.77
2022-08-30T16:19:34.362Z,0.80
2022-08-30T16:22:02.014Z,0.63
2022-08-30T16:24:29.480Z,1.30
2022-08-30T16:26:57.449Z,1.00
2022-08-30T16:29:24.737Z,0.70
2022-08-30T16:31:51.839Z,0.68
2022-08-30T16:34:22.875Z,0.75
2022-08-30T16:36:50.592Z,1.88
2022-08-30T16:39:18.563Z,0.68
2022-08-30T16:41:46.807Z,1.02
2022-08-30T16:44:18.411Z,0.93
2022-08-30T16:46:52.741Z,0.60
2022-08-30T16:49:25.518Z,0.55
2022-08-30T16:51:56.035Z,1.00
2022-08-30T16:54:24.202Z,1.10
2022-08-30T16:56:52.784Z,0.77
2022-08-30T16:59:20.583Z,0.70
2022-08-30T17:01:48.892Z,1.00
2022-08-30T17:04:20.271Z,0.70
2022-08-30T17:06:50.181Z,1.10
2022-08-30T17:09:19.918Z,0.90
2022-08-30T17:11:50.769Z,1.00
2022-08-30T17:14:28.099Z,1.33
2022-08-30T17:17:00.359Z,0.90
2022-08-30T17:19:28.760Z,0.90
2022-08-30T17:21:56.970Z,1.27
2022-08-30T17:24:25.903Z,0.82
2022-08-30T17:26:54.403Z,0.90
2022-08-30T17:29:22.030Z,0.85
2022-08-30T17:31:50.995Z,0.60
2022-08-30T17:34:21.252Z,0.93
2022-08-30T17:36:51.331Z,1.23
2022-08-30T17:39:18.480Z,1.07
2022-08-30T17:41:51.512Z,0.77
2022-08-30T17:44:21.726Z,0.80
2022-08-30T17:46:53.642Z,1.10
2022-08-30T17:49:21.317Z,1.10
2022-08-30T17:51:56.379Z,0.87
2022-08-30T17:54:25.995Z,0.90
2022-08-30T17:56:55.667Z,1.30
2022-08-30T17:59:24.794Z,1.10
2022-08-30T18:01:54.833Z,1.60
2022-08-30T18:04:24.804Z,1.50
2022-08-30T18:06:53.559Z,1.70
2022-08-30T18:09:21.278Z,1.27
2022-08-30T18:11:48.727Z,0.77
2022-08-30T18:14:16.951Z,1.00
2022-08-30T18:16:49.705Z,0.90
2022-08-30T18:19:22.580Z,1.03
2022-08-30T18:21:49.659Z,1.30
2022-08-30T18:24:17.729Z,0.90
2022-08-30T18:26:45.000Z,0.80
2022-08-30T18:29:12.229Z,1.20
2022-08-30T18:31:39.527Z,1.20
2022-08-30T18:34:07.158Z,1.00
2022-08-30T18:36:41.335Z,1.17
2022-08-30T18:39:09.051Z,1.20
2022-08-30T18:41:43.220Z,1.10
2022-08-30T18:44:27.321Z,1.20
2022-08-30T18:46:57.393Z,1.13
2022-08-30T18:49:29.380Z,1.47
2022-08-30T18:52:01.266Z,1.57
2022-08-30T18:54:29.026Z,1.10
2022-08-30T18:56:56.004Z,0.80
2022-08-30T18:59:23.005Z,0.77
2022-08-30T19:02:02.683Z,0.63
2022-08-30T19:04:35.438Z,0.60
2022-08-30T19:07:09.264Z,1.10
2022-08-30T19:09:37.085Z,0.97
2022-08-30T19:14:53.007Z,0.80
2022-08-30T19:17:20.202Z,1.10
2022-08-30T19:19:49.330Z,1.00
2022-08-30T19:22:24.521Z,0.80
2022-08-30T19:24:55.780Z,1.03
2022-08-30T19:27:37.408Z,0.70
2022-08-30T19:30:11.634Z,1.43
2022-08-30T19:32:38.991Z,0.90
2022-08-30T19:35:07.683Z,1.10
2022-08-30T19:37:36.111Z,0.80
2022-08-30T19:40:11.537Z,1.00
2022-08-30T19:42:46.165Z,0.90
2022-08-30T19:45:18.221Z,1.00
2022-08-30T19:47:47.201Z,1.20
2022-08-30T19:50:14.651Z,1.07
2022-08-30T19:52:41.893Z,0.80
2022-08-30T19:55:11.873Z,1.13
2022-08-30T19:57:39.019Z,0.90
2022-08-30T20:00:11.170Z,0.90
2022-08-30T20:02:50.804Z,0.90
2022-08-30T20:05:22.230Z,0.90
2022-08-30T20:07:51.716Z,1.07
2022-08-30T20:10:20.739Z,1.10
2022-08-30T20:12:53.333Z,0.70
2022-08-30T20:15:20.727Z,1.07
2022-08-30T20:18:06.366Z,0.90
2022-08-30T20:20:36.998Z,0.70
2022-08-30T20:23:05.989Z,1.10
2022-08-30T20:24:32.075Z,1.20
2022-08-30T20:25:33.845Z,0.90
2022-08-30T20:28:01.619Z,1.10
2022-08-30T20:30:28.722Z,0.90
2022-08-30T20:32:57.228Z,0.90
2022-08-30T20:35:24.673Z,1.20
2022-08-30T20:37:51.892Z,0.90
2022-08-30T20:40:20.715Z,0.80
2022-08-30T20:42:48.216Z,0.93
2022-08-30T20:45:17.544Z,0.70
2022-08-30T20:47:45.414Z,1.10
2022-08-30T20:50:15.784Z,1.10
2022-08-30T20:52:44.477Z,0.93
2022-08-30T20:55:13.572Z,1.27
2022-08-30T20:57:41.056Z,1.07
2022-08-30T21:00:13.525Z,1.00
2022-08-30T21:02:46.888Z,1.20
2022-08-30T21:05:17.782Z,1.33
2022-08-30T21:07:46.296Z,1.23
2022-08-30T21:10:14.322Z,1.13
2022-08-30T21:12:42.790Z,1.23
2022-08-30T21:15:33.751Z,2.10
2022-08-30T21:17:58.310Z,2.70
2022-08-30T21:20:25.676Z,1.63
2022-08-30T21:22:52.853Z,1.60
2022-08-30T21:25:20.225Z,1.57
2022-08-30T21:27:47.416Z,1.70
2022-08-30T21:30:15.644Z,1.60
2022-08-30T21:32:42.765Z,1.10
2022-08-30T21:35:28.842Z,1.30
2022-08-30T21:37:55.943Z,1.10
2022-08-30T21:40:23.081Z,1.40
2022-08-30T21:42:50.213Z,1.50
2022-08-30T21:45:17.476Z,1.30
2022-08-30T21:47:44.697Z,1.67
2022-08-30T21:50:12.001Z,1.27
2022-08-30T21:52:39.133Z,1.43
2022-08-30T21:55:07.265Z,1.53
2022-08-30T21:57:34.538Z,1.40
2022-08-30T22:00:02.425Z,1.50
2022-08-30T22:02:29.771Z,1.30
2022-08-30T22:04:57.113Z,1.53
2022-08-30T22:07:24.224Z,1.20
2022-08-30T22:09:51.398Z,1.60
2022-08-30T22:12:18.794Z,1.33
2022-08-30T22:14:46.040Z,1.57
2022-08-30T22:17:13.479Z,1.60
2022-08-30T22:19:40.625Z,1.40
2022-08-30T22:22:07.710Z,1.63
2022-08-30T22:24:34.953Z,1.30
2022-08-30T22:27:03.807Z,1.60
2022-08-30T22:29:31.240Z,1.57
2022-08-30T22:31:59.177Z,1.10
2022-08-30T22:34:26.816Z,1.60
2022-08-30T22:36:53.973Z,1.60
2022-08-30T22:39:21.091Z,1.30
2022-08-30T22:41:48.298Z,1.50
2022-08-30T22:44:15.382Z,1.30
2022-08-30T22:46:43.478Z,1.40
2022-08-30T22:49:11.978Z,1.57
2022-08-30T22:51:41.596Z,1.40
2022-08-30T22:54:10.020Z,1.60
2022-08-30T22:56:38.658Z,1.57
2022-08-30T22:59:06.435Z,1.57
2022-08-30T23:01:43.112Z,1.23
2022-08-30T23:04:11.993Z,1.40
2022-08-30T23:06:40.570Z,1.53
2022-08-30T23:09:08.588Z,1.50
2022-08-30T23:11:38.710Z,1.23
2022-08-30T23:14:06.634Z,1.60
2022-08-30T23:16:35.240Z,1.30
2022-08-30T23:19:03.797Z,1.33
2022-08-30T23:21:31.330Z,1.70
2022-08-30T23:24:17.661Z,1.30
2022-08-30T23:27:04.739Z,1.67
2022-08-30T23:29:51.568Z,1.43
2022-08-30T23:32:37.950Z,1.70
2022-08-30T23:35:29.774Z,1.83
2022-08-30T23:38:18.022Z,1.70
2022-08-30T23:41:03.428Z,1.47
2022-08-30T23:43:48.936Z,1.70
2022-08-30T23:46:34.905Z,1.60
2022-08-30T23:49:21.146Z,1.73
2022-08-30T23:52:06.522Z,1.40
2022-08-30T23:54:57.159Z,1.30
2022-08-30T23:57:45.131Z,1.63
